createdAt,value
2023-03-26T00:03:53.921Z,6.85
2023-03-26T00:10:56.209Z,6.68
2023-03-26T00:17:58.257Z,6.10
2023-03-26T00:25:01.667Z,5.82
2023-03-26T00:32:03.669Z,5.88
2023-03-26T00:39:06.249Z,6.28
2023-03-26T00:46:08.413Z,6.35
2023-03-26T00:53:14.595Z,5.70
2023-03-26T01:00:19.168Z,5.43
2023-03-26T01:07:22.948Z,5.32
2023-03-26T01:14:26.231Z,5.22
2023-03-26T01:21:30.589Z,5.70
2023-03-26T01:28:35.327Z,5.68
2023-03-26T01:35:54.907Z,6.60
2023-03-26T01:50:01.340Z,6.40
2023-03-26T01:57:06.284Z,5.55
2023-03-26T02:04:22.837Z,5.85
2023-03-26T02:11:34.814Z,6.70
2023-03-26T02:18:39.290Z,6.10
2023-03-26T02:25:44.073Z,5.03
2023-03-26T02:32:46.186Z,5.07
2023-03-26T02:39:48.205Z,6.07
2023-03-26T02:46:50.225Z,5.50
2023-03-26T02:53:53.950Z,6.45
2023-03-26T03:00:56.817Z,6.10
2023-03-26T03:07:59.755Z,5.95
2023-03-26T03:15:01.757Z,5.65
2023-03-26T03:22:03.792Z,6.30
2023-03-26T03:29:06.029Z,5.82
2023-03-26T03:36:20.393Z,6.15
2023-03-26T03:43:23.561Z,6.43
2023-03-26T03:50:25.697Z,6.20
2023-03-26T03:57:28.822Z,6.53
2023-03-26T04:04:30.907Z,6.65
2023-03-26T04:11:32.956Z,6.95
2023-03-26T04:18:36.953Z,6.05
2023-03-26T04:25:39.687Z,6.80
2023-03-26T04:32:43.174Z,7.18
2023-03-26T04:39:45.243Z,6.90
2023-03-26T04:46:47.585Z,7.28
2023-03-26T04:53:54.942Z,7.13
2023-03-26T05:00:57.692Z,6.78
2023-03-26T05:07:59.743Z,6.95
2023-03-26T05:15:01.614Z,7.18
2023-03-26T05:22:03.618Z,6.68
2023-03-26T05:29:05.853Z,7.25
2023-03-26T05:36:21.550Z,6.80
2023-03-26T05:43:23.613Z,6.93
2023-03-26T05:50:25.703Z,6.43
2023-03-26T05:57:30.530Z,6.65
2023-03-26T06:04:32.821Z,5.90
2023-03-26T06:11:34.903Z,6.80
2023-03-26T06:18:36.971Z,7.20
2023-03-26T06:25:39.086Z,6.72
2023-03-26T06:32:41.156Z,6.72
2023-03-26T06:39:43.318Z,7.10
2023-03-26T06:46:45.681Z,6.05
2023-03-26T06:53:47.710Z,6.10
2023-03-26T07:00:53.870Z,5.80
2023-03-26T07:07:56.176Z,5.22
2023-03-26T07:15:00.240Z,6.30
2023-03-26T07:22:02.695Z,3.67
2023-03-26T07:29:21.303Z,4.93
2023-03-26T07:36:34.595Z,3.15
2023-03-26T07:43:54.736Z,3.35
2023-03-26T07:50:57.424Z,5.25
2023-03-26T07:58:08.587Z,5.95
2023-03-26T08:05:19.969Z,4.55
2023-03-26T08:12:41.788Z,3.65
2023-03-26T08:19:46.963Z,3.42
2023-03-26T08:27:19.563Z,3.60
2023-03-26T08:34:21.583Z,3.60
2023-03-26T08:41:32.560Z,4.88
2023-03-26T08:49:03.230Z,4.95
2023-03-26T08:56:17.249Z,4.07
2023-03-26T09:03:39.855Z,3.28
2023-03-26T09:11:21.349Z,3.88
2023-03-26T09:18:53.895Z,2.70
2023-03-26T09:26:42.159Z,3.25
2023-03-26T09:34:27.819Z,4.40
2023-03-26T09:41:53.467Z,5.00
2023-03-26T09:49:13.235Z,3.33
2023-03-26T10:03:26.978Z,2.42
2023-03-26T10:10:31.903Z,3.22
2023-03-26T10:18:27.368Z,1.88
2023-03-26T10:25:37.342Z,2.10
2023-03-26T10:33:18.994Z,2.17
2023-03-26T10:40:36.161Z,2.20
2023-03-26T10:48:07.919Z,2.00
2023-03-26T10:55:25.346Z,1.83
2023-03-26T11:02:36.200Z,2.40
2023-03-26T11:09:59.624Z,3.47
2023-03-26T11:17:40.678Z,3.95
2023-03-26T11:24:41.871Z,4.45
2023-03-26T11:32:06.713Z,2.25
2023-03-26T11:39:14.417Z,4.85
2023-03-26T11:46:19.348Z,2.75
2023-03-26T11:53:25.424Z,2.33
2023-03-26T12:00:28.235Z,1.52
2023-03-26T12:07:32.839Z,1.95
2023-03-26T12:14:35.767Z,2.53
2023-03-26T12:21:50.095Z,3.50
2023-03-26T12:28:52.271Z,3.42
2023-03-26T12:35:55.414Z,3.15
2023-03-26T12:44:47.003Z,5.07
2023-03-26T12:50:35.605Z,3.55
2023-03-26T12:58:13.842Z,2.38
2023-03-26T13:05:40.464Z,4.18
2023-03-26T13:13:05.355Z,2.75
2023-03-26T13:20:33.405Z,2.22
2023-03-26T13:28:00.756Z,4.10
2023-03-26T13:35:24.719Z,3.22
2023-03-26T13:42:44.853Z,2.75
2023-03-26T13:49:59.699Z,4.80
2023-03-26T13:57:29.713Z,3.42
2023-03-26T14:04:37.646Z,2.53
2023-03-26T14:11:50.988Z,2.63
2023-03-26T14:19:01.203Z,2.80
2023-03-26T14:26:28.424Z,2.22
2023-03-26T14:34:35.325Z,2.90
2023-03-26T14:42:04.195Z,3.30
2023-03-26T14:49:38.679Z,2.28
2023-03-26T14:57:12.160Z,1.90
2023-03-26T15:04:35.944Z,2.00
2023-03-26T15:11:54.113Z,3.40
2023-03-26T15:19:58.396Z,3.35
2023-03-26T15:27:32.395Z,2.03
2023-03-26T15:35:20.176Z,4.90
2023-03-26T15:42:40.892Z,4.30
2023-03-26T15:50:00.770Z,2.72
2023-03-26T15:57:17.328Z,8.10
2023-03-26T16:04:38.435Z,5.55
2023-03-26T16:11:45.384Z,3.50
2023-03-26T16:18:57.179Z,4.72
2023-03-26T16:26:11.934Z,6.25
2023-03-26T16:33:16.590Z,3.65
2023-03-26T16:40:21.043Z,4.72
2023-03-26T16:47:34.762Z,3.03
2023-03-26T16:54:47.063Z,7.32
2023-03-26T17:02:24.120Z,10.82
2023-03-26T17:09:52.572Z,6.35
2023-03-26T17:17:22.734Z,10.35
2023-03-26T17:24:44.975Z,14.57
2023-03-26T17:32:13.149Z,5.10
2023-03-26T17:39:51.763Z,12.18
2023-03-26T17:46:57.899Z,6.38
2023-03-26T17:54:01.274Z,4.63
2023-03-26T18:01:09.396Z,16.80
2023-03-26T18:08:16.978Z,8.90
2023-03-26T18:16:04.742Z,22.42
2023-03-26T18:23:12.991Z,22.27
2023-03-26T18:30:23.588Z,12.90
2023-03-26T18:37:39.403Z,9.52
2023-03-26T18:44:42.673Z,10.27
2023-03-26T18:51:56.258Z,10.25
2023-03-26T18:59:02.933Z,14.55
2023-03-26T19:06:11.925Z,13.90
2023-03-26T19:13:20.165Z,12.05
2023-03-26T19:20:28.215Z,14.98
2023-03-26T19:27:31.659Z,14.77
2023-03-26T19:34:43.653Z,17.10
2023-03-26T19:41:52.172Z,15.23
2023-03-26T19:48:57.681Z,18.30
2023-03-26T19:56:14.011Z,15.43
2023-03-26T20:03:19.099Z,18.02
2023-03-26T20:10:24.321Z,21.27
2023-03-26T20:17:33.618Z,13.77
2023-03-26T20:24:36.904Z,11.65
2023-03-26T20:31:42.311Z,16.75
2023-03-26T20:38:46.553Z,16.20
2023-03-26T20:45:49.498Z,12.93
2023-03-26T20:52:51.775Z,8.45
2023-03-26T20:59:56.342Z,9.18
2023-03-26T21:07:07.141Z,8.13
2023-03-26T21:14:16.505Z,9.50
2023-03-26T21:21:49.757Z,10.23
2023-03-26T21:28:52.413Z,10.32
2023-03-26T21:35:57.397Z,14.80
2023-03-26T21:42:59.761Z,11.20
2023-03-26T21:50:02.152Z,12.68
2023-03-26T21:57:20.207Z,8.30
2023-03-26T22:04:42.846Z,12.30
2023-03-26T22:11:44.932Z,11.30
2023-03-26T22:18:46.892Z,8.43
2023-03-26T22:25:49.005Z,7.60
2023-03-26T22:32:51.948Z,7.65
2023-03-26T22:39:54.037Z,8.38
2023-03-26T22:46:57.435Z,8.75
2023-03-26T22:53:59.367Z,8.00
2023-03-26T23:01:14.814Z,7.32
2023-03-26T23:08:16.820Z,6.25
2023-03-26T23:15:20.849Z,6.63
2023-03-26T23:22:22.832Z,6.68
2023-03-26T23:29:25.552Z,8.15
2023-03-26T23:36:27.646Z,7.35
2023-03-26T23:43:29.615Z,6.10
2023-03-26T23:50:31.685Z,6.13
2023-03-26T23:57:33.648Z,5.65
